Newington, New Hampshire
Current Conditions -  °F | °C
As of 2:51 AM on Friday 19 Dec 2014 (Local Time) from KDAW Reporting Station
Clear Clear  
Wind Chill: 23°   Ceiling: Unl
Heat Index: 31°   Visibility: 10mi
Dew Point: 22°   Wind: 9mph
Humidity: 69%   Direction: 300°WNW
Pressure: 29.83"   Gusts: NA
Location:  43.2364°N, 70.8206°W
Report Text: KDAW 190751Z AUTO 30008KT 10SM CLR M01/M06 A2983 RMK AO2 SLP101 T10061056
Loading
Personal Weather Stations






























Interactive Weather Map New forecast layout! Learn more

10-Day Weather Forecast

Advertisements
Track Severe Weather on mobile